sensor_id;sensor_type;location;lat;lon;timestamp;temperature;humidity
2995;DHT22;35277;49.890;8.222;2022-09-09T00:00:55;27.10;71.40
2995;DHT22;35277;49.890;8.222;2022-09-09T00:03:33;27.10;71.40
2995;DHT22;35277;49.890;8.222;2022-09-09T00:06:08;27.10;71.40
2995;DHT22;35277;49.890;8.222;2022-09-09T00:08:47;27.10;71.40
2995;DHT22;35277;49.890;8.222;2022-09-09T00:11:21;27.00;71.30
2995;DHT22;35277;49.890;8.222;2022-09-09T00:14:00;27.10;71.40
2995;DHT22;35277;49.890;8.222;2022-09-09T00:16:34;27.10;71.50
2995;DHT22;35277;49.890;8.222;2022-09-09T00:19:07;27.10;71.40
2995;DHT22;35277;49.890;8.222;2022-09-09T00:21:53;27.10;71.40
2995;DHT22;35277;49.890;8.222;2022-09-09T00:24:28;27.10;71.40
2995;DHT22;35277;49.890;8.222;2022-09-09T00:27:02;27.00;71.30
2995;DHT22;35277;49.890;8.222;2022-09-09T00:29:35;27.00;71.30
2995;DHT22;35277;49.890;8.222;2022-09-09T00:32:12;27.00;71.30
2995;DHT22;35277;49.890;8.222;2022-09-09T00:34:47;27.00;71.30
2995;DHT22;35277;49.890;8.222;2022-09-09T00:37:16;27.00;71.30
2995;DHT22;35277;49.890;8.222;2022-09-09T00:39:47;27.00;71.30
2995;DHT22;35277;49.890;8.222;2022-09-09T00:42:22;27.00;71.30
2995;DHT22;35277;49.890;8.222;2022-09-09T00:44:53;27.00;71.30
2995;DHT22;35277;49.890;8.222;2022-09-09T00:47:43;27.00;71.30
2995;DHT22;35277;49.890;8.222;2022-09-09T00:53:19;27.00;71.30
2995;DHT22;35277;49.890;8.222;2022-09-09T00:55:56;27.00;71.30
2995;DHT22;35277;49.890;8.222;2022-09-09T00:58:27;27.00;71.30
2995;DHT22;35277;49.890;8.222;2022-09-09T01:00:59;27.00;71.30
2995;DHT22;35277;49.890;8.222;2022-09-09T01:03:34;27.00;71.30
2995;DHT22;35277;49.890;8.222;2022-09-09T01:06:13;27.00;71.30
2995;DHT22;35277;49.890;8.222;2022-09-09T01:09:08;27.00;71.30
2995;DHT22;35277;49.890;8.222;2022-09-09T01:11:51;27.00;71.30
2995;DHT22;35277;49.890;8.222;2022-09-09T01:14:38;27.00;71.30
2995;DHT22;35277;49.890;8.222;2022-09-09T01:17:12;27.00;71.30
2995;DHT22;35277;49.890;8.222;2022-09-09T01:19:59;27.00;71.30
2995;DHT22;35277;49.890;8.222;2022-09-09T01:22:36;27.00;71.30
2995;DHT22;35277;49.890;8.222;2022-09-09T01:25:18;27.00;72.10
2995;DHT22;35277;49.890;8.222;2022-09-09T01:28:05;27.00;71.30
2995;DHT22;35277;49.890;8.222;2022-09-09T01:30:39;27.00;71.30
2995;DHT22;35277;49.890;8.222;2022-09-09T01:33:13;27.00;71.30
2995;DHT22;35277;49.890;8.222;2022-09-09T01:35:46;27.00;71.30
2995;DHT22;35277;49.890;8.222;2022-09-09T01:38:18;27.00;71.30
2995;DHT22;35277;49.890;8.222;2022-09-09T01:40:49;27.00;71.30
2995;DHT22;35277;49.890;8.222;2022-09-09T01:43:24;27.00;71.30
2995;DHT22;35277;49.890;8.222;2022-09-09T01:45:54;27.00;71.20
2995;DHT22;35277;49.890;8.222;2022-09-09T01:48:23;27.00;71.30
2995;DHT22;35277;49.890;8.222;2022-09-09T01:51:00;27.00;71.20
2995;DHT22;35277;49.890;8.222;2022-09-09T01:53:29;27.00;71.30
2995;DHT22;35277;49.890;8.222;2022-09-09T01:56:04;27.00;71.20
2995;DHT22;35277;49.890;8.222;2022-09-09T01:58:47;27.00;71.20
2995;DHT22;35277;49.890;8.222;2022-09-09T02:01:27;27.00;71.20
2995;DHT22;35277;49.890;8.222;2022-09-09T02:04:03;27.00;71.20
2995;DHT22;35277;49.890;8.222;2022-09-09T02:06:35;27.00;71.20
2995;DHT22;35277;49.890;8.222;2022-09-09T02:09:18;27.00;71.20
2995;DHT22;35277;49.890;8.222;2022-09-09T02:11:47;27.00;71.20
2995;DHT22;35277;49.890;8.222;2022-09-09T02:14:28;27.00;71.30
2995;DHT22;35277;49.890;8.222;2022-09-09T02:17:03;27.00;71.20
2995;DHT22;35277;49.890;8.222;2022-09-09T02:19:55;27.00;71.20
2995;DHT22;35277;49.890;8.222;2022-09-09T02:22:39;27.00;71.20
2995;DHT22;35277;49.890;8.222;2022-09-09T02:25:10;27.00;71.20
2995;DHT22;35277;49.890;8.222;2022-09-09T02:27:41;27.00;71.20
2995;DHT22;35277;49.890;8.222;2022-09-09T02:30:12;27.00;71.20
2995;DHT22;35277;49.890;8.222;2022-09-09T02:32:49;27.00;71.20
2995;DHT22;35277;49.890;8.222;2022-09-09T02:35:21;27.00;71.20
2995;DHT22;35277;49.890;8.222;2022-09-09T02:37:52;27.00;71.30
2995;DHT22;35277;49.890;8.222;2022-09-09T02:40:22;27.00;71.30
2995;DHT22;35277;49.890;8.222;2022-09-09T02:42:57;27.00;71.30
2995;DHT22;35277;49.890;8.222;2022-09-09T02:45:36;27.00;71.30
2995;DHT22;35277;49.890;8.222;2022-09-09T02:48:12;27.00;71.30
2995;DHT22;35277;49.890;8.222;2022-09-09T02:50:48;27.00;71.30
2995;DHT22;35277;49.890;8.222;2022-09-09T02:53:26;27.00;71.30
2995;DHT22;35277;49.890;8.222;2022-09-09T02:55:59;27.00;71.30
2995;DHT22;35277;49.890;8.222;2022-09-09T02:58:34;27.00;71.30
2995;DHT22;35277;49.890;8.222;2022-09-09T03:01:06;27.00;71.30
2995;DHT22;35277;49.890;8.222;2022-09-09T03:03:35;27.00;71.30
2995;DHT22;35277;49.890;8.222;2022-09-09T03:06:08;27.00;71.30
2995;DHT22;35277;49.890;8.222;2022-09-09T03:08:36;27.00;71.30
2995;DHT22;35277;49.890;8.222;2022-09-09T03:11:04;27.00;71.30
2995;DHT22;35277;49.890;8.222;2022-09-09T03:13:35;27.00;71.30
2995;DHT22;35277;49.890;8.222;2022-09-09T03:16:06;27.00;71.30
2995;DHT22;35277;49.890;8.222;2022-09-09T03:18:40;27.00;71.30
2995;DHT22;35277;49.890;8.222;2022-09-09T03:21:09;27.00;71.30
2995;DHT22;35277;49.890;8.222;2022-09-09T03:23:39;27.00;71.30
2995;DHT22;35277;49.890;8.222;2022-09-09T03:26:07;27.00;71.30
2995;DHT22;35277;49.890;8.222;2022-09-09T03:28:41;27.00;71.30
2995;DHT22;35277;49.890;8.222;2022-09-09T03:31:11;27.00;71.30
2995;DHT22;35277;49.890;8.222;2022-09-09T03:33:41;27.00;71.30
2995;DHT22;35277;49.890;8.222;2022-09-09T03:36:11;27.00;71.30
2995;DHT22;35277;49.890;8.222;2022-09-09T03:38:39;27.00;72.10
2995;DHT22;35277;49.890;8.222;2022-09-09T03:41:07;27.00;71.30
2995;DHT22;35277;49.890;8.222;2022-09-09T03:43:38;27.00;71.20
2995;DHT22;35277;49.890;8.222;2022-09-09T03:46:06;27.00;71.30
2995;DHT22;35277;49.890;8.222;2022-09-09T03:48:35;27.00;71.20
2995;DHT22;35277;49.890;8.222;2022-09-09T03:51:04;27.00;71.30
2995;DHT22;35277;49.890;8.222;2022-09-09T03:53:33;27.00;71.20
2995;DHT22;35277;49.890;8.222;2022-09-09T03:56:02;27.00;71.20
2995;DHT22;35277;49.890;8.222;2022-09-09T03:58:30;27.00;71.20
2995;DHT22;35277;49.890;8.222;2022-09-09T04:01:06;27.00;71.20
2995;DHT22;35277;49.890;8.222;2022-09-09T04:03:37;27.00;71.20
2995;DHT22;35277;49.890;8.222;2022-09-09T04:06:07;27.00;71.20
2995;DHT22;35277;49.890;8.222;2022-09-09T04:08:36;27.00;71.20
2995;DHT22;35277;49.890;8.222;2022-09-09T04:11:05;27.00;71.20
2995;DHT22;35277;49.890;8.222;2022-09-09T04:13:35;27.00;71.20
2995;DHT22;35277;49.890;8.222;2022-09-09T04:16:04;27.00;71.20
2995;DHT22;35277;49.890;8.222;2022-09-09T04:18:34;27.00;71.20
2995;DHT22;35277;49.890;8.222;2022-09-09T04:21:04;27.00;71.10
2995;DHT22;35277;49.890;8.222;2022-09-09T04:23:34;27.00;71.20
2995;DHT22;35277;49.890;8.222;2022-09-09T04:26:03;27.00;71.20
2995;DHT22;35277;49.890;8.222;2022-09-09T04:28:34;27.00;71.20
2995;DHT22;35277;49.890;8.222;2022-09-09T04:31:06;27.00;71.10
2995;DHT22;35277;49.890;8.222;2022-09-09T04:33:37;27.00;71.10
2995;DHT22;35277;49.890;8.222;2022-09-09T04:36:09;27.00;71.10
2995;DHT22;35277;49.890;8.222;2022-09-09T04:38:37;27.00;71.10
2995;DHT22;35277;49.890;8.222;2022-09-09T04:41:05;27.00;71.10
2995;DHT22;35277;49.890;8.222;2022-09-09T04:43:36;27.00;71.10
2995;DHT22;35277;49.890;8.222;2022-09-09T04:46:06;27.00;71.10
2995;DHT22;35277;49.890;8.222;2022-09-09T04:48:34;27.00;71.10
2995;DHT22;35277;49.890;8.222;2022-09-09T04:51:05;26.90;70.90
2995;DHT22;35277;49.890;8.222;2022-09-09T04:53:35;27.00;71.10
2995;DHT22;35277;49.890;8.222;2022-09-09T04:56:06;27.00;71.10
2995;DHT22;35277;49.890;8.222;2022-09-09T04:58:39;26.90;70.90
2995;DHT22;35277;49.890;8.222;2022-09-09T05:01:11;27.00;71.00
2995;DHT22;35277;49.890;8.222;2022-09-09T05:03:41;27.00;71.00
2995;DHT22;35277;49.890;8.222;2022-09-09T05:06:14;26.90;71.00
2995;DHT22;35277;49.890;8.222;2022-09-09T05:08:44;27.00;71.10
2995;DHT22;35277;49.890;8.222;2022-09-09T05:11:18;27.00;71.10
2995;DHT22;35277;49.890;8.222;2022-09-09T05:13:47;27.00;71.20
2995;DHT22;35277;49.890;8.222;2022-09-09T05:16:18;27.00;71.20
2995;DHT22;35277;49.890;8.222;2022-09-09T05:18:46;27.00;71.30
2995;DHT22;35277;49.890;8.222;2022-09-09T05:21:17;26.90;70.80
2995;DHT22;35277;49.890;8.222;2022-09-09T05:23:47;26.90;70.60
2995;DHT22;35277;49.890;8.222;2022-09-09T05:26:16;26.80;70.30
2995;DHT22;35277;49.890;8.222;2022-09-09T05:28:46;26.70;70.10
2995;DHT22;35277;49.890;8.222;2022-09-09T05:31:16;26.50;69.80
2995;DHT22;35277;49.890;8.222;2022-09-09T05:33:48;26.50;69.80
2995;DHT22;35277;49.890;8.222;2022-09-09T05:36:18;26.40;69.70
2995;DHT22;35277;49.890;8.222;2022-09-09T05:38:50;26.30;69.60
2995;DHT22;35277;49.890;8.222;2022-09-09T05:41:20;26.30;69.70
2995;DHT22;35277;49.890;8.222;2022-09-09T05:43:50;26.20;69.60
2995;DHT22;35277;49.890;8.222;2022-09-09T05:46:20;26.20;69.60
2995;DHT22;35277;49.890;8.222;2022-09-09T05:48:51;26.20;69.70
2995;DHT22;35277;49.890;8.222;2022-09-09T05:51:28;26.10;69.60
2995;DHT22;35277;49.890;8.222;2022-09-09T05:53:59;26.10;69.60
2995;DHT22;35277;49.890;8.222;2022-09-09T05:56:30;26.10;69.60
2995;DHT22;35277;49.890;8.222;2022-09-09T05:58:59;26.10;69.60
2995;DHT22;35277;49.890;8.222;2022-09-09T06:01:29;26.10;69.70
2995;DHT22;35277;49.890;8.222;2022-09-09T06:03:57;26.00;69.60
2995;DHT22;35277;49.890;8.222;2022-09-09T06:06:26;26.00;69.70
2995;DHT22;35277;49.890;8.222;2022-09-09T06:08:57;26.00;69.70
2995;DHT22;35277;49.890;8.222;2022-09-09T06:11:33;25.90;69.70
2995;DHT22;35277;49.890;8.222;2022-09-09T06:14:03;25.90;69.80
2995;DHT22;35277;49.890;8.222;2022-09-09T06:16:32;25.80;69.80
2995;DHT22;35277;49.890;8.222;2022-09-09T06:19:01;25.80;69.80
2995;DHT22;35277;49.890;8.222;2022-09-09T06:21:32;25.80;69.90
2995;DHT22;35277;49.890;8.222;2022-09-09T06:24:02;25.80;70.00
2995;DHT22;35277;49.890;8.222;2022-09-09T06:26:32;25.70;70.00
2995;DHT22;35277;49.890;8.222;2022-09-09T06:29:03;25.70;70.10
2995;DHT22;35277;49.890;8.222;2022-09-09T06:31:33;25.70;70.20
2995;DHT22;35277;49.890;8.222;2022-09-09T06:34:17;25.70;70.30
2995;DHT22;35277;49.890;8.222;2022-09-09T06:36:48;25.70;70.30
2995;DHT22;35277;49.890;8.222;2022-09-09T06:39:17;25.70;70.40
2995;DHT22;35277;49.890;8.222;2022-09-09T06:41:47;25.60;70.40
2995;DHT22;35277;49.890;8.222;2022-09-09T06:44:37;25.60;70.40
2995;DHT22;35277;49.890;8.222;2022-09-09T06:47:09;25.60;70.50
2995;DHT22;35277;49.890;8.222;2022-09-09T06:49:38;25.60;70.50
2995;DHT22;35277;49.890;8.222;2022-09-09T06:52:09;25.60;70.60
2995;DHT22;35277;49.890;8.222;2022-09-09T06:54:38;25.60;70.70
2995;DHT22;35277;49.890;8.222;2022-09-09T06:57:07;25.60;70.80
2995;DHT22;35277;49.890;8.222;2022-09-09T06:59:55;25.50;70.80
2995;DHT22;35277;49.890;8.222;2022-09-09T07:02:24;25.60;71.00
2995;DHT22;35277;49.890;8.222;2022-09-09T07:04:52;25.60;70.90
2995;DHT22;35277;49.890;8.222;2022-09-09T07:07:20;25.70;71.00
2995;DHT22;35277;49.890;8.222;2022-09-09T07:09:48;25.70;70.90
2995;DHT22;35277;49.890;8.222;2022-09-09T07:12:18;25.80;70.80
2995;DHT22;35277;49.890;8.222;2022-09-09T07:14:53;25.90;70.80
2995;DHT22;35277;49.890;8.222;2022-09-09T07:17:21;25.90;70.80
2995;DHT22;35277;49.890;8.222;2022-09-09T07:19:49;25.90;70.70
2995;DHT22;35277;49.890;8.222;2022-09-09T07:22:17;26.00;70.80
2995;DHT22;35277;49.890;8.222;2022-09-09T07:24:46;26.10;70.80
2995;DHT22;35277;49.890;8.222;2022-09-09T07:27:17;26.10;70.80
2995;DHT22;35277;49.890;8.222;2022-09-09T07:29:46;26.10;70.70
2995;DHT22;35277;49.890;8.222;2022-09-09T07:32:15;26.20;70.80
2995;DHT22;35277;49.890;8.222;2022-09-09T07:34:43;26.20;70.80
2995;DHT22;35277;49.890;8.222;2022-09-09T07:37:11;26.20;70.70
2995;DHT22;35277;49.890;8.222;2022-09-09T07:39:42;26.30;70.70
2995;DHT22;35277;49.890;8.222;2022-09-09T07:42:10;26.30;70.70
2995;DHT22;35277;49.890;8.222;2022-09-09T07:44:40;26.30;70.60
2995;DHT22;35277;49.890;8.222;2022-09-09T07:47:11;26.40;70.70
2995;DHT22;35277;49.890;8.222;2022-09-09T07:49:43;26.40;70.70
2995;DHT22;35277;49.890;8.222;2022-09-09T07:52:14;26.40;70.70
2995;DHT22;35277;49.890;8.222;2022-09-09T07:54:48;26.40;70.70
2995;DHT22;35277;49.890;8.222;2022-09-09T07:57:17;26.40;70.70
2995;DHT22;35277;49.890;8.222;2022-09-09T07:59:47;26.40;70.70
2995;DHT22;35277;49.890;8.222;2022-09-09T08:02:15;26.50;70.80
2995;DHT22;35277;49.890;8.222;2022-09-09T08:04:43;26.50;70.80
2995;DHT22;35277;49.890;8.222;2022-09-09T08:07:13;26.50;70.80
2995;DHT22;35277;49.890;8.222;2022-09-09T08:09:48;26.50;70.80
2995;DHT22;35277;49.890;8.222;2022-09-09T08:12:20;26.50;70.80
2995;DHT22;35277;49.890;8.222;2022-09-09T08:14:50;26.50;70.90
2995;DHT22;35277;49.890;8.222;2022-09-09T08:17:22;26.60;70.90
2995;DHT22;35277;49.890;8.222;2022-09-09T08:19:50;26.60;70.80
2995;DHT22;35277;49.890;8.222;2022-09-09T08:22:22;26.60;70.80
2995;DHT22;35277;49.890;8.222;2022-09-09T08:24:51;26.60;70.80
2995;DHT22;35277;49.890;8.222;2022-09-09T08:27:18;26.60;71.60
2995;DHT22;35277;49.890;8.222;2022-09-09T08:29:47;26.60;70.80
2995;DHT22;35277;49.890;8.222;2022-09-09T08:32:17;26.70;70.90
2995;DHT22;35277;49.890;8.222;2022-09-09T08:34:45;26.70;70.90
2995;DHT22;35277;49.890;8.222;2022-09-09T08:37:19;26.70;70.90
2995;DHT22;35277;49.890;8.222;2022-09-09T08:39:48;26.70;70.90
2995;DHT22;35277;49.890;8.222;2022-09-09T08:42:36;26.70;70.90
2995;DHT22;35277;49.890;8.222;2022-09-09T08:45:21;26.70;71.70
2995;DHT22;35277;49.890;8.222;2022-09-09T08:50:49;26.70;71.00
2995;DHT22;35277;49.890;8.222;2022-09-09T08:53:26;26.70;71.00
2995;DHT22;35277;49.890;8.222;2022-09-09T08:55:58;26.70;71.00
2995;DHT22;35277;49.890;8.222;2022-09-09T08:58:50;26.70;71.00
2995;DHT22;35277;49.890;8.222;2022-09-09T09:01:55;26.80;71.00
2995;DHT22;35277;49.890;8.222;2022-09-09T09:04:50;26.80;71.00
2995;DHT22;35277;49.890;8.222;2022-09-09T09:07:32;26.80;70.90
2995;DHT22;35277;49.890;8.222;2022-09-09T09:10:12;26.80;70.90
2995;DHT22;35277;49.890;8.222;2022-09-09T09:13:03;26.80;70.80
2995;DHT22;35277;49.890;8.222;2022-09-09T09:15:37;26.80;70.80
2995;DHT22;35277;49.890;8.222;2022-09-09T09:18:09;26.80;70.80
2995;DHT22;35277;49.890;8.222;2022-09-09T09:20:47;26.80;70.70
2995;DHT22;35277;49.890;8.222;2022-09-09T09:23:22;26.80;70.70
2995;DHT22;35277;49.890;8.222;2022-09-09T09:25:58;26.90;70.80
2995;DHT22;35277;49.890;8.222;2022-09-09T09:28:30;26.90;70.80
2995;DHT22;35277;49.890;8.222;2022-09-09T09:31:09;26.90;70.80
2995;DHT22;35277;49.890;8.222;2022-09-09T09:33:46;26.90;70.80
2995;DHT22;35277;49.890;8.222;2022-09-09T09:36:16;26.90;70.80
2995;DHT22;35277;49.890;8.222;2022-09-09T09:38:55;26.90;70.80
2995;DHT22;35277;49.890;8.222;2022-09-09T09:41:43;26.90;70.80
2995;DHT22;35277;49.890;8.222;2022-09-09T09:44:23;27.00;70.90
2995;DHT22;35277;49.890;8.222;2022-09-09T09:46:52;27.00;70.90
2995;DHT22;35277;49.890;8.222;2022-09-09T09:49:20;27.00;71.00
2995;DHT22;35277;49.890;8.222;2022-09-09T09:51:49;27.00;71.10
2995;DHT22;35277;49.890;8.222;2022-09-09T09:54:28;27.00;71.10
2995;DHT22;35277;49.890;8.222;2022-09-09T09:57:09;27.00;71.30
2995;DHT22;35277;49.890;8.222;2022-09-09T09:59:39;27.00;71.40
2995;DHT22;35277;49.890;8.222;2022-09-09T10:02:23;27.00;71.70
2995;DHT22;35277;49.890;8.222;2022-09-09T10:05:08;27.00;72.00
2995;DHT22;35277;49.890;8.222;2022-09-09T10:07:42;27.00;72.10
2995;DHT22;35277;49.890;8.222;2022-09-09T10:10:25;27.00;72.30
2995;DHT22;35277;49.890;8.222;2022-09-09T10:13:02;27.10;72.60
2995;DHT22;35277;49.890;8.222;2022-09-09T10:15:38;27.10;72.70
2995;DHT22;35277;49.890;8.222;2022-09-09T10:18:25;27.10;72.80
2995;DHT22;35277;49.890;8.222;2022-09-09T10:21:06;27.10;72.80
2995;DHT22;35277;49.890;8.222;2022-09-09T10:23:51;27.10;72.90
2995;DHT22;35277;49.890;8.222;2022-09-09T10:26:35;27.10;72.90
2995;DHT22;35277;49.890;8.222;2022-09-09T10:29:20;27.10;72.70
2995;DHT22;35277;49.890;8.222;2022-09-09T10:31:56;27.10;72.20
2995;DHT22;35277;49.890;8.222;2022-09-09T10:34:45;27.00;71.50
2995;DHT22;35277;49.890;8.222;2022-09-09T10:37:24;27.00;71.10
2995;DHT22;35277;49.890;8.222;2022-09-09T10:40:03;26.90;70.70
2995;DHT22;35277;49.890;8.222;2022-09-09T10:42:32;26.90;70.30
2995;DHT22;35277;49.890;8.222;2022-09-09T10:45:15;26.80;69.70
2995;DHT22;35277;49.890;8.222;2022-09-09T10:47:53;26.70;69.30
2995;DHT22;35277;49.890;8.222;2022-09-09T10:50:42;26.60;69.00
2995;DHT22;35277;49.890;8.222;2022-09-09T10:53:37;26.60;69.20
2995;DHT22;35277;49.890;8.222;2022-09-09T10:56:11;26.60;69.20
2995;DHT22;35277;49.890;8.222;2022-09-09T10:58:43;26.60;69.30
2995;DHT22;35277;49.890;8.222;2022-09-09T11:01:17;26.70;69.40
2995;DHT22;35277;49.890;8.222;2022-09-09T11:03:52;26.70;69.30
2995;DHT22;35277;49.890;8.222;2022-09-09T11:06:27;26.80;69.40
2995;DHT22;35277;49.890;8.222;2022-09-09T11:08:57;26.80;69.40
2995;DHT22;35277;49.890;8.222;2022-09-09T11:11:31;26.80;69.40
2995;DHT22;35277;49.890;8.222;2022-09-09T11:14:05;26.80;69.40
2995;DHT22;35277;49.890;8.222;2022-09-09T11:16:40;26.90;69.50
2995;DHT22;35277;49.890;8.222;2022-09-09T11:19:16;26.90;69.60
2995;DHT22;35277;49.890;8.222;2022-09-09T11:21:46;26.90;69.60
2995;DHT22;35277;49.890;8.222;2022-09-09T11:24:21;26.90;69.60
2995;DHT22;35277;49.890;8.222;2022-09-09T11:26:53;26.90;69.70
2995;DHT22;35277;49.890;8.222;2022-09-09T11:29:42;26.90;69.70
2995;DHT22;35277;49.890;8.222;2022-09-09T11:32:27;27.00;69.70
2995;DHT22;35277;49.890;8.222;2022-09-09T11:35:14;27.00;69.70
2995;DHT22;35277;49.890;8.222;2022-09-09T11:38:16;27.00;69.70
2995;DHT22;35277;49.890;8.222;2022-09-09T11:40:44;27.00;69.70
2995;DHT22;35277;49.890;8.222;2022-09-09T11:43:16;27.00;69.70
2995;DHT22;35277;49.890;8.222;2022-09-09T11:45:51;27.00;69.70
2995;DHT22;35277;49.890;8.222;2022-09-09T11:48:30;27.00;69.70
2995;DHT22;35277;49.890;8.222;2022-09-09T11:51:02;27.00;69.70
2995;DHT22;35277;49.890;8.222;2022-09-09T11:53:32;27.00;69.80
2995;DHT22;35277;49.890;8.222;2022-09-09T11:56:06;27.00;69.80
2995;DHT22;35277;49.890;8.222;2022-09-09T11:58:56;27.00;69.80
2995;DHT22;35277;49.890;8.222;2022-09-09T12:01:38;27.00;69.80
2995;DHT22;35277;49.890;8.222;2022-09-09T12:04:30;27.00;69.80
2995;DHT22;35277;49.890;8.222;2022-09-09T12:07:00;27.00;69.80
2995;DHT22;35277;49.890;8.222;2022-09-09T12:09:42;27.00;69.80
2995;DHT22;35277;49.890;8.222;2022-09-09T12:12:29;27.00;69.80
2995;DHT22;35277;49.890;8.222;2022-09-09T12:17:49;27.00;69.80
2995;DHT22;35277;49.890;8.222;2022-09-09T12:20:19;27.00;69.80
2995;DHT22;35277;49.890;8.222;2022-09-09T12:23:02;27.00;69.70
2995;DHT22;35277;49.890;8.222;2022-09-09T12:26:03;27.00;69.70
2995;DHT22;35277;49.890;8.222;2022-09-09T12:28:55;27.00;69.70
2995;DHT22;35277;49.890;8.222;2022-09-09T12:31:34;27.00;69.70
2995;DHT22;35277;49.890;8.222;2022-09-09T12:34:10;27.00;69.70
2995;DHT22;35277;49.890;8.222;2022-09-09T12:36:39;27.00;69.70
2995;DHT22;35277;49.890;8.222;2022-09-09T12:39:16;27.00;69.70
2995;DHT22;35277;49.890;8.222;2022-09-09T12:41:51;27.00;69.70
2995;DHT22;35277;49.890;8.222;2022-09-09T12:44:23;27.00;69.70
2995;DHT22;35277;49.890;8.222;2022-09-09T12:46:53;27.00;69.80
2995;DHT22;35277;49.890;8.222;2022-09-09T12:49:28;27.00;69.80
2995;DHT22;35277;49.890;8.222;2022-09-09T12:51:57;27.00;69.80
2995;DHT22;35277;49.890;8.222;2022-09-09T12:54:26;27.00;69.70
2995;DHT22;35277;49.890;8.222;2022-09-09T12:56:54;27.00;69.80
2995;DHT22;35277;49.890;8.222;2022-09-09T12:59:24;27.00;69.80
2995;DHT22;35277;49.890;8.222;2022-09-09T13:01:57;27.00;69.80
2995;DHT22;35277;49.890;8.222;2022-09-09T13:04:25;27.00;69.80
2995;DHT22;35277;49.890;8.222;2022-09-09T13:06:53;27.00;69.80
2995;DHT22;35277;49.890;8.222;2022-09-09T13:09:21;27.00;69.80
2995;DHT22;35277;49.890;8.222;2022-09-09T13:11:51;27.00;69.70
2995;DHT22;35277;49.890;8.222;2022-09-09T13:14:28;27.00;69.30
2995;DHT22;35277;49.890;8.222;2022-09-09T13:17:02;27.00;68.80
2995;DHT22;35277;49.890;8.222;2022-09-09T13:19:33;26.90;68.30
2995;DHT22;35277;49.890;8.222;2022-09-09T13:22:11;26.80;68.10
2995;DHT22;35277;49.890;8.222;2022-09-09T13:24:39;26.70;67.80
2995;DHT22;35277;49.890;8.222;2022-09-09T13:27:24;26.60;67.70
2995;DHT22;35277;49.890;8.222;2022-09-09T13:29:54;26.60;67.70
2995;DHT22;35277;49.890;8.222;2022-09-09T13:32:25;26.50;67.60
2995;DHT22;35277;49.890;8.222;2022-09-09T13:34:56;26.40;67.60
2995;DHT22;35277;49.890;8.222;2022-09-09T13:37:29;26.30;67.70
2995;DHT22;35277;49.890;8.222;2022-09-09T13:39:57;26.30;67.80
2995;DHT22;35277;49.890;8.222;2022-09-09T13:42:27;26.20;67.90
2995;DHT22;35277;49.890;8.222;2022-09-09T13:44:56;26.20;67.90
2995;DHT22;35277;49.890;8.222;2022-09-09T13:47:31;26.10;67.80
2995;DHT22;35277;49.890;8.222;2022-09-09T13:50:14;26.10;68.00
2995;DHT22;35277;49.890;8.222;2022-09-09T13:52:45;26.10;68.20
2995;DHT22;35277;49.890;8.222;2022-09-09T13:55:14;26.10;68.10
2995;DHT22;35277;49.890;8.222;2022-09-09T13:57:50;26.20;68.20
2995;DHT22;35277;49.890;8.222;2022-09-09T14:00:18;26.20;68.20
2995;DHT22;35277;49.890;8.222;2022-09-09T14:02:48;26.30;68.30
2995;DHT22;35277;49.890;8.222;2022-09-09T14:05:16;26.30;68.20
2995;DHT22;35277;49.890;8.222;2022-09-09T14:07:44;26.40;68.30
2995;DHT22;35277;49.890;8.222;2022-09-09T14:10:18;26.40;68.40
2995;DHT22;35277;49.890;8.222;2022-09-09T14:12:46;26.40;68.40
2995;DHT22;35277;49.890;8.222;2022-09-09T14:15:14;26.50;68.50
2995;DHT22;35277;49.890;8.222;2022-09-09T14:17:42;26.50;68.50
2995;DHT22;35277;49.890;8.222;2022-09-09T14:20:11;26.50;68.50
2995;DHT22;35277;49.890;8.222;2022-09-09T14:22:41;26.50;68.60
2995;DHT22;35277;49.890;8.222;2022-09-09T14:25:10;26.50;68.60
2995;DHT22;35277;49.890;8.222;2022-09-09T14:27:40;26.60;68.70
2995;DHT22;35277;49.890;8.222;2022-09-09T14:30:09;26.60;68.70
2995;DHT22;35277;49.890;8.222;2022-09-09T14:32:37;26.60;68.80
2995;DHT22;35277;49.890;8.222;2022-09-09T14:35:05;26.60;68.80
2995;DHT22;35277;49.890;8.222;2022-09-09T14:37:35;26.60;68.80
2995;DHT22;35277;49.890;8.222;2022-09-09T14:40:03;26.70;68.90
2995;DHT22;35277;49.890;8.222;2022-09-09T14:42:31;26.70;68.90
2995;DHT22;35277;49.890;8.222;2022-09-09T14:44:58;26.70;68.90
2995;DHT22;35277;49.890;8.222;2022-09-09T14:47:26;26.70;69.00
2995;DHT22;35277;49.890;8.222;2022-09-09T14:49:54;26.70;69.00
2995;DHT22;35277;49.890;8.222;2022-09-09T14:52:22;26.70;69.00
2995;DHT22;35277;49.890;8.222;2022-09-09T14:54:51;26.70;69.00
2995;DHT22;35277;49.890;8.222;2022-09-09T14:57:18;26.70;69.00
2995;DHT22;35277;49.890;8.222;2022-09-09T14:59:46;26.80;69.10
2995;DHT22;35277;49.890;8.222;2022-09-09T15:02:16;26.80;69.90
2995;DHT22;35277;49.890;8.222;2022-09-09T15:04:44;26.80;69.10
2995;DHT22;35277;49.890;8.222;2022-09-09T15:07:12;26.80;69.20
2995;DHT22;35277;49.890;8.222;2022-09-09T15:09:40;26.80;69.30
2995;DHT22;35277;49.890;8.222;2022-09-09T15:12:09;26.80;69.30
2995;DHT22;35277;49.890;8.222;2022-09-09T15:14:36;26.80;69.30
2995;DHT22;35277;49.890;8.222;2022-09-09T15:17:04;26.80;69.30
2995;DHT22;35277;49.890;8.222;2022-09-09T15:19:32;26.80;69.30
2995;DHT22;35277;49.890;8.222;2022-09-09T15:22:00;26.80;69.30
2995;DHT22;35277;49.890;8.222;2022-09-09T15:24:27;26.80;69.30
2995;DHT22;35277;49.890;8.222;2022-09-09T15:26:55;26.80;69.30
2995;DHT22;35277;49.890;8.222;2022-09-09T15:29:25;26.80;69.40
2995;DHT22;35277;49.890;8.222;2022-09-09T15:31:54;26.80;69.40
2995;DHT22;35277;49.890;8.222;2022-09-09T15:34:22;26.90;69.40
2995;DHT22;35277;49.890;8.222;2022-09-09T15:36:50;26.80;69.40
2995;DHT22;35277;49.890;8.222;2022-09-09T15:39:18;26.90;69.50
2995;DHT22;35277;49.890;8.222;2022-09-09T15:41:47;26.90;69.50
2995;DHT22;35277;49.890;8.222;2022-09-09T15:44:15;26.90;69.40
2995;DHT22;35277;49.890;8.222;2022-09-09T15:46:46;26.90;69.50
2995;DHT22;35277;49.890;8.222;2022-09-09T15:49:17;26.90;69.50
2995;DHT22;35277;49.890;8.222;2022-09-09T15:51:46;26.90;69.40
2995;DHT22;35277;49.890;8.222;2022-09-09T15:54:16;26.90;69.40
2995;DHT22;35277;49.890;8.222;2022-09-09T15:56:45;26.90;69.50
2995;DHT22;35277;49.890;8.222;2022-09-09T15:59:14;26.90;69.50
2995;DHT22;35277;49.890;8.222;2022-09-09T16:01:44;26.90;69.50
2995;DHT22;35277;49.890;8.222;2022-09-09T16:04:12;26.90;69.50
2995;DHT22;35277;49.890;8.222;2022-09-09T16:06:40;26.90;69.60
2995;DHT22;35277;49.890;8.222;2022-09-09T16:09:08;26.90;69.60
2995;DHT22;35277;49.890;8.222;2022-09-09T16:11:37;26.90;69.50
2995;DHT22;35277;49.890;8.222;2022-09-09T16:14:05;26.90;69.50
2995;DHT22;35277;49.890;8.222;2022-09-09T16:16:34;26.90;69.50
2995;DHT22;35277;49.890;8.222;2022-09-09T16:19:05;26.90;69.60
2995;DHT22;35277;49.890;8.222;2022-09-09T16:21:35;26.90;69.60
2995;DHT22;35277;49.890;8.222;2022-09-09T16:24:05;26.90;69.90
2995;DHT22;35277;49.890;8.222;2022-09-09T16:26:35;26.90;69.60
2995;DHT22;35277;49.890;8.222;2022-09-09T16:29:04;26.90;69.60
2995;DHT22;35277;49.890;8.222;2022-09-09T16:31:32;26.90;69.60